sensor_id;sensor_type;location;lat;lon;timestamp;P1;durP1;ratioP1;P2;durP2;ratioP2
17181;SDS011;8706;48.254;16.422;2024-01-15T00:00:07;4.27;;;3.87;;
17181;SDS011;8706;48.254;16.422;2024-01-15T00:02:35;3.57;;;3.27;;
17181;SDS011;8706;48.254;16.422;2024-01-15T00:05:03;3.90;;;3.60;;
17181;SDS011;8706;48.254;16.422;2024-01-15T00:07:30;3.67;;;3.37;;
17181;SDS011;8706;48.254;16.422;2024-01-15T00:09:57;4.40;;;4.00;;
17181;SDS011;8706;48.254;16.422;2024-01-15T00:12:24;4.23;;;3.83;;
17181;SDS011;8706;48.254;16.422;2024-01-15T00:14:51;3.90;;;3.60;;
17181;SDS011;8706;48.254;16.422;2024-01-15T00:17:18;4.70;;;4.30;;
17181;SDS011;8706;48.254;16.422;2024-01-15T00:19:45;4.23;;;3.83;;
17181;SDS011;8706;48.254;16.422;2024-01-15T00:22:13;4.50;;;4.13;;
17181;SDS011;8706;48.254;16.422;2024-01-15T00:24:40;4.27;;;3.80;;
17181;SDS011;8706;48.254;16.422;2024-01-15T00:27:07;3.93;;;3.53;;
17181;SDS011;8706;48.254;16.422;2024-01-15T00:29:33;3.80;;;3.50;;
17181;SDS011;8706;48.254;16.422;2024-01-15T00:32:00;4.60;;;4.20;;
17181;SDS011;8706;48.254;16.422;2024-01-15T00:34:27;4.13;;;3.80;;
17181;SDS011;8706;48.254;16.422;2024-01-15T00:36:54;4.10;;;3.67;;
17181;SDS011;8706;48.254;16.422;2024-01-15T00:39:22;4.70;;;4.30;;
17181;SDS011;8706;48.254;16.422;2024-01-15T00:41:49;4.37;;;3.73;;
17181;SDS011;8706;48.254;16.422;2024-01-15T00:44:16;4.03;;;3.63;;
17181;SDS011;8706;48.254;16.422;2024-01-15T00:46:43;4.53;;;3.80;;
17181;SDS011;8706;48.254;16.422;2024-01-15T00:49:11;4.40;;;4.00;;
17181;SDS011;8706;48.254;16.422;2024-01-15T00:51:38;4.27;;;3.87;;
17181;SDS011;8706;48.254;16.422;2024-01-15T00:54:05;3.70;;;3.40;;
17181;SDS011;8706;48.254;16.422;2024-01-15T00:56:33;4.00;;;3.60;;
17181;SDS011;8706;48.254;16.422;2024-01-15T00:59:00;4.27;;;3.87;;
17181;SDS011;8706;48.254;16.422;2024-01-15T01:01:27;4.30;;;3.90;;
17181;SDS011;8706;48.254;16.422;2024-01-15T01:03:54;4.03;;;3.63;;
17181;SDS011;8706;48.254;16.422;2024-01-15T01:06:21;4.30;;;3.90;;
17181;SDS011;8706;48.254;16.422;2024-01-15T01:08:48;4.27;;;3.87;;
17181;SDS011;8706;48.254;16.422;2024-01-15T01:11:15;4.10;;;3.70;;
17181;SDS011;8706;48.254;16.422;2024-01-15T01:13:43;3.97;;;3.67;;
17181;SDS011;8706;48.254;16.422;2024-01-15T01:16:10;4.30;;;3.87;;
17181;SDS011;8706;48.254;16.422;2024-01-15T01:18:37;3.90;;;3.60;;
17181;SDS011;8706;48.254;16.422;2024-01-15T01:21:04;3.63;;;3.33;;
17181;SDS011;8706;48.254;16.422;2024-01-15T01:23:31;3.83;;;3.53;;
17181;SDS011;8706;48.254;16.422;2024-01-15T01:25:57;3.97;;;3.60;;
17181;SDS011;8706;48.254;16.422;2024-01-15T01:28:24;4.17;;;3.73;;
17181;SDS011;8706;48.254;16.422;2024-01-15T01:30:53;3.73;;;3.43;;
17181;SDS011;8706;48.254;16.422;2024-01-15T01:33:20;4.23;;;3.83;;
17181;SDS011;8706;48.254;16.422;2024-01-15T01:35:46;3.77;;;3.47;;
17181;SDS011;8706;48.254;16.422;2024-01-15T01:38:13;4.23;;;3.83;;
17181;SDS011;8706;48.254;16.422;2024-01-15T01:40:40;3.93;;;3.63;;
17181;SDS011;8706;48.254;16.422;2024-01-15T01:43:08;3.87;;;3.50;;
17181;SDS011;8706;48.254;16.422;2024-01-15T01:45:35;4.20;;;3.80;;
17181;SDS011;8706;48.254;16.422;2024-01-15T01:48:04;4.13;;;3.77;;
17181;SDS011;8706;48.254;16.422;2024-01-15T01:50:31;4.10;;;3.80;;
17181;SDS011;8706;48.254;16.422;2024-01-15T01:52:58;4.00;;;3.63;;
17181;SDS011;8706;48.254;16.422;2024-01-15T01:55:28;4.00;;;3.60;;
17181;SDS011;8706;48.254;16.422;2024-01-15T01:57:58;4.13;;;3.83;;
17181;SDS011;8706;48.254;16.422;2024-01-15T02:00:26;4.23;;;3.83;;
17181;SDS011;8706;48.254;16.422;2024-01-15T02:02:54;4.07;;;3.77;;
17181;SDS011;8706;48.254;16.422;2024-01-15T02:05:22;3.60;;;3.30;;
17181;SDS011;8706;48.254;16.422;2024-01-15T02:07:49;3.70;;;3.40;;
17181;SDS011;8706;48.254;16.422;2024-01-15T02:10:16;3.63;;;3.33;;
17181;SDS011;8706;48.254;16.422;2024-01-15T02:12:43;4.13;;;3.73;;
17181;SDS011;8706;48.254;16.422;2024-01-15T02:15:10;3.90;;;3.60;;
17181;SDS011;8706;48.254;16.422;2024-01-15T02:20:24;4.03;;;3.63;;
17181;SDS011;8706;48.254;16.422;2024-01-15T02:22:51;3.63;;;3.33;;
17181;SDS011;8706;48.254;16.422;2024-01-15T02:25:19;3.80;;;3.50;;
17181;SDS011;8706;48.254;16.422;2024-01-15T02:27:47;3.40;;;3.10;;
17181;SDS011;8706;48.254;16.422;2024-01-15T02:30:14;3.50;;;3.20;;
17181;SDS011;8706;48.254;16.422;2024-01-15T02:32:41;4.47;;;4.07;;
17181;SDS011;8706;48.254;16.422;2024-01-15T02:35:08;4.10;;;3.70;;
17181;SDS011;8706;48.254;16.422;2024-01-15T02:37:35;3.87;;;3.57;;
17181;SDS011;8706;48.254;16.422;2024-01-15T02:40:02;3.73;;;3.43;;
17181;SDS011;8706;48.254;16.422;2024-01-15T02:42:31;4.07;;;3.60;;
17181;SDS011;8706;48.254;16.422;2024-01-15T02:44:58;3.60;;;3.30;;
17181;SDS011;8706;48.254;16.422;2024-01-15T02:47:24;3.43;;;3.13;;
17181;SDS011;8706;48.254;16.422;2024-01-15T02:49:51;3.47;;;3.17;;
17181;SDS011;8706;48.254;16.422;2024-01-15T02:52:18;4.00;;;3.60;;
17181;SDS011;8706;48.254;16.422;2024-01-15T02:54:45;3.77;;;3.47;;
17181;SDS011;8706;48.254;16.422;2024-01-15T02:57:12;4.17;;;3.83;;
17181;SDS011;8706;48.254;16.422;2024-01-15T02:59:40;4.43;;;4.03;;
17181;SDS011;8706;48.254;16.422;2024-01-15T03:02:07;3.80;;;3.50;;
17181;SDS011;8706;48.254;16.422;2024-01-15T03:04:34;3.90;;;3.60;;
17181;SDS011;8706;48.254;16.422;2024-01-15T03:07:01;4.00;;;3.60;;
17181;SDS011;8706;48.254;16.422;2024-01-15T03:09:27;3.73;;;3.43;;
17181;SDS011;8706;48.254;16.422;2024-01-15T03:11:54;4.43;;;4.03;;
17181;SDS011;8706;48.254;16.422;2024-01-15T03:14:21;3.90;;;3.60;;
17181;SDS011;8706;48.254;16.422;2024-01-15T03:16:51;3.60;;;3.30;;
17181;SDS011;8706;48.254;16.422;2024-01-15T03:19:18;3.73;;;3.43;;
17181;SDS011;8706;48.254;16.422;2024-01-15T03:21:45;3.93;;;3.63;;
17181;SDS011;8706;48.254;16.422;2024-01-15T03:24:12;3.97;;;3.60;;
17181;SDS011;8706;48.254;16.422;2024-01-15T03:26:39;3.63;;;3.33;;
17181;SDS011;8706;48.254;16.422;2024-01-15T03:29:07;3.83;;;3.53;;
17181;SDS011;8706;48.254;16.422;2024-01-15T03:31:34;3.80;;;3.50;;
17181;SDS011;8706;48.254;16.422;2024-01-15T03:34:02;3.57;;;3.27;;
17181;SDS011;8706;48.254;16.422;2024-01-15T03:36:29;3.67;;;3.37;;
17181;SDS011;8706;48.254;16.422;2024-01-15T03:38:56;3.60;;;3.30;;
17181;SDS011;8706;48.254;16.422;2024-01-15T03:41:23;3.40;;;3.10;;
17181;SDS011;8706;48.254;16.422;2024-01-15T03:43:49;4.10;;;3.70;;
17181;SDS011;8706;48.254;16.422;2024-01-15T03:46:16;3.40;;;3.10;;
17181;SDS011;8706;48.254;16.422;2024-01-15T03:48:43;3.50;;;3.20;;
17181;SDS011;8706;48.254;16.422;2024-01-15T03:51:11;3.57;;;3.27;;
17181;SDS011;8706;48.254;16.422;2024-01-15T03:53:38;3.53;;;3.23;;
17181;SDS011;8706;48.254;16.422;2024-01-15T03:56:05;3.90;;;3.60;;
17181;SDS011;8706;48.254;16.422;2024-01-15T03:58:32;3.70;;;3.40;;
17181;SDS011;8706;48.254;16.422;2024-01-15T04:00:59;3.60;;;3.30;;
17181;SDS011;8706;48.254;16.422;2024-01-15T04:03:26;4.13;;;3.73;;
17181;SDS011;8706;48.254;16.422;2024-01-15T04:05:52;3.90;;;3.60;;
17181;SDS011;8706;48.254;16.422;2024-01-15T04:08:21;3.73;;;3.43;;
17181;SDS011;8706;48.254;16.422;2024-01-15T04:10:47;3.77;;;3.47;;
17181;SDS011;8706;48.254;16.422;2024-01-15T04:13:14;3.80;;;3.50;;
17181;SDS011;8706;48.254;16.422;2024-01-15T04:15:41;4.07;;;3.77;;
17181;SDS011;8706;48.254;16.422;2024-01-15T04:18:08;4.00;;;3.70;;
17181;SDS011;8706;48.254;16.422;2024-01-15T04:20:35;4.30;;;3.90;;
17181;SDS011;8706;48.254;16.422;2024-01-15T04:23:02;4.10;;;3.80;;
17181;SDS011;8706;48.254;16.422;2024-01-15T04:25:30;3.87;;;3.57;;
17181;SDS011;8706;48.254;16.422;2024-01-15T04:27:57;4.00;;;3.70;;
17181;SDS011;8706;48.254;16.422;2024-01-15T04:30:24;4.37;;;3.97;;
17181;SDS011;8706;48.254;16.422;2024-01-15T04:32:51;3.90;;;3.60;;
17181;SDS011;8706;48.254;16.422;2024-01-15T04:35:18;4.10;;;3.80;;
17181;SDS011;8706;48.254;16.422;2024-01-15T04:37:45;4.27;;;3.87;;
17181;SDS011;8706;48.254;16.422;2024-01-15T04:40:12;4.00;;;3.67;;
17181;SDS011;8706;48.254;16.422;2024-01-15T04:42:41;3.60;;;3.30;;
17181;SDS011;8706;48.254;16.422;2024-01-15T04:45:08;4.23;;;3.83;;
17181;SDS011;8706;48.254;16.422;2024-01-15T04:47:35;4.07;;;3.67;;
17181;SDS011;8706;48.254;16.422;2024-01-15T04:50:03;4.37;;;3.97;;
17181;SDS011;8706;48.254;16.422;2024-01-15T04:52:30;3.67;;;3.37;;
17181;SDS011;8706;48.254;16.422;2024-01-15T04:54:57;3.60;;;3.30;;
17181;SDS011;8706;48.254;16.422;2024-01-15T04:57:24;5.10;;;4.70;;
17181;SDS011;8706;48.254;16.422;2024-01-15T04:59:52;4.33;;;3.93;;
17181;SDS011;8706;48.254;16.422;2024-01-15T05:02:19;4.00;;;3.70;;
17181;SDS011;8706;48.254;16.422;2024-01-15T05:04:46;4.30;;;3.90;;
17181;SDS011;8706;48.254;16.422;2024-01-15T05:07:13;4.23;;;3.83;;
17181;SDS011;8706;48.254;16.422;2024-01-15T05:09:40;4.03;;;3.63;;
17181;SDS011;8706;48.254;16.422;2024-01-15T05:12:07;3.90;;;3.60;;
17181;SDS011;8706;48.254;16.422;2024-01-15T05:14:34;4.07;;;3.63;;
17181;SDS011;8706;48.254;16.422;2024-01-15T05:17:02;4.03;;;3.70;;
17181;SDS011;8706;48.254;16.422;2024-01-15T05:19:29;4.80;;;4.40;;
17181;SDS011;8706;48.254;16.422;2024-01-15T05:21:56;4.43;;;4.03;;
17181;SDS011;8706;48.254;16.422;2024-01-15T05:24:23;4.20;;;3.80;;
17181;SDS011;8706;48.254;16.422;2024-01-15T05:26:51;4.20;;;3.90;;
17181;SDS011;8706;48.254;16.422;2024-01-15T05:29:18;4.50;;;4.10;;
17181;SDS011;8706;48.254;16.422;2024-01-15T05:31:45;4.20;;;3.80;;
17181;SDS011;8706;48.254;16.422;2024-01-15T05:34:13;3.87;;;3.57;;
17181;SDS011;8706;48.254;16.422;2024-01-15T05:36:40;4.67;;;4.30;;
17181;SDS011;8706;48.254;16.422;2024-01-15T05:39:07;4.10;;;3.80;;
17181;SDS011;8706;48.254;16.422;2024-01-15T05:41:34;4.57;;;4.17;;
17181;SDS011;8706;48.254;16.422;2024-01-15T05:44:00;4.03;;;3.73;;
17181;SDS011;8706;48.254;16.422;2024-01-15T05:46:27;4.60;;;4.20;;
17181;SDS011;8706;48.254;16.422;2024-01-15T05:48:54;3.60;;;3.30;;
17181;SDS011;8706;48.254;16.422;2024-01-15T05:51:22;3.90;;;3.60;;
17181;SDS011;8706;48.254;16.422;2024-01-15T05:53:49;3.90;;;3.60;;
17181;SDS011;8706;48.254;16.422;2024-01-15T05:56:16;3.50;;;3.20;;
17181;SDS011;8706;48.254;16.422;2024-01-15T05:58:43;3.43;;;3.20;;
17181;SDS011;8706;48.254;16.422;2024-01-15T06:01:10;4.77;;;4.40;;
17181;SDS011;8706;48.254;16.422;2024-01-15T06:03:37;4.40;;;4.00;;
17181;SDS011;8706;48.254;16.422;2024-01-15T06:06:04;3.67;;;3.37;;
17181;SDS011;8706;48.254;16.422;2024-01-15T06:08:32;3.87;;;3.57;;
17181;SDS011;8706;48.254;16.422;2024-01-15T06:10:59;4.40;;;4.10;;
17181;SDS011;8706;48.254;16.422;2024-01-15T06:13:26;3.40;;;3.10;;
17181;SDS011;8706;48.254;16.422;2024-01-15T06:15:53;4.30;;;3.93;;
17181;SDS011;8706;48.254;16.422;2024-01-15T06:18:19;4.67;;;4.27;;
17181;SDS011;8706;48.254;16.422;2024-01-15T06:20:46;3.80;;;3.50;;
17181;SDS011;8706;48.254;16.422;2024-01-15T06:23:13;3.77;;;3.47;;
17181;SDS011;8706;48.254;16.422;2024-01-15T06:25:41;3.70;;;3.40;;
17181;SDS011;8706;48.254;16.422;2024-01-15T06:28:08;3.93;;;3.63;;
17181;SDS011;8706;48.254;16.422;2024-01-15T06:30:35;3.53;;;3.23;;
17181;SDS011;8706;48.254;16.422;2024-01-15T06:33:02;3.70;;;3.40;;
17181;SDS011;8706;48.254;16.422;2024-01-15T06:35:29;3.50;;;3.27;;
17181;SDS011;8706;48.254;16.422;2024-01-15T06:37:56;4.90;;;4.50;;
17181;SDS011;8706;48.254;16.422;2024-01-15T06:40:23;3.77;;;3.47;;
17181;SDS011;8706;48.254;16.422;2024-01-15T06:42:51;4.53;;;4.23;;
17181;SDS011;8706;48.254;16.422;2024-01-15T06:45:18;4.30;;;4.00;;
17181;SDS011;8706;48.254;16.422;2024-01-15T06:47:45;4.37;;;4.07;;
17181;SDS011;8706;48.254;16.422;2024-01-15T06:50:12;4.00;;;3.70;;
17181;SDS011;8706;48.254;16.422;2024-01-15T06:52:38;3.40;;;3.20;;
17181;SDS011;8706;48.254;16.422;2024-01-15T06:55:05;3.87;;;3.57;;
17181;SDS011;8706;48.254;16.422;2024-01-15T06:57:33;3.57;;;3.27;;
17181;SDS011;8706;48.254;16.422;2024-01-15T07:00:01;5.60;;;5.20;;
17181;SDS011;8706;48.254;16.422;2024-01-15T07:02:32;19.70;;;9.53;;
17181;SDS011;8706;48.254;16.422;2024-01-15T07:04:59;20.30;;;8.37;;
17181;SDS011;8706;48.254;16.422;2024-01-15T07:07:26;11.63;;;7.00;;
17181;SDS011;8706;48.254;16.422;2024-01-15T07:09:56;12.43;;;6.57;;
17181;SDS011;8706;48.254;16.422;2024-01-15T07:12:23;14.53;;;6.30;;
17181;SDS011;8706;48.254;16.422;2024-01-15T07:14:50;10.07;;;6.53;;
17181;SDS011;8706;48.254;16.422;2024-01-15T07:17:19;10.07;;;5.57;;
17181;SDS011;8706;48.254;16.422;2024-01-15T07:19:45;9.47;;;5.47;;
17181;SDS011;8706;48.254;16.422;2024-01-15T07:22:12;10.57;;;5.20;;
17181;SDS011;8706;48.254;16.422;2024-01-15T07:24:40;8.83;;;5.47;;
17181;SDS011;8706;48.254;16.422;2024-01-15T07:27:07;9.83;;;6.37;;
17181;SDS011;8706;48.254;16.422;2024-01-15T07:29:34;6.17;;;5.23;;
17181;SDS011;8706;48.254;16.422;2024-01-15T07:32:02;6.00;;;5.00;;
17181;SDS011;8706;48.254;16.422;2024-01-15T07:34:31;10.60;;;4.63;;
17181;SDS011;8706;48.254;16.422;2024-01-15T07:36:58;8.50;;;4.67;;
17181;SDS011;8706;48.254;16.422;2024-01-15T07:39:25;7.63;;;4.20;;
17181;SDS011;8706;48.254;16.422;2024-01-15T07:41:53;6.27;;;4.83;;
17181;SDS011;8706;48.254;16.422;2024-01-15T07:44:21;7.23;;;4.40;;
17181;SDS011;8706;48.254;16.422;2024-01-15T07:46:47;6.93;;;4.50;;
17181;SDS011;8706;48.254;16.422;2024-01-15T07:49:14;5.53;;;4.40;;
17181;SDS011;8706;48.254;16.422;2024-01-15T07:51:43;6.40;;;4.17;;
17181;SDS011;8706;48.254;16.422;2024-01-15T07:54:10;5.53;;;4.10;;
17181;SDS011;8706;48.254;16.422;2024-01-15T07:59:19;3.33;;;2.90;;
17181;SDS011;8706;48.254;16.422;2024-01-15T08:01:46;4.30;;;4.00;;
17181;SDS011;8706;48.254;16.422;2024-01-15T08:04:13;7.50;;;3.70;;
17181;SDS011;8706;48.254;16.422;2024-01-15T08:06:40;3.67;;;3.13;;
17181;SDS011;8706;48.254;16.422;2024-01-15T08:09:08;5.00;;;3.67;;
17181;SDS011;8706;48.254;16.422;2024-01-15T08:11:35;3.33;;;2.90;;
17181;SDS011;8706;48.254;16.422;2024-01-15T08:14:02;3.77;;;3.37;;
17181;SDS011;8706;48.254;16.422;2024-01-15T08:16:29;3.80;;;3.50;;
17181;SDS011;8706;48.254;16.422;2024-01-15T08:18:56;3.70;;;3.40;;
17181;SDS011;8706;48.254;16.422;2024-01-15T08:21:23;5.13;;;3.37;;
17181;SDS011;8706;48.254;16.422;2024-01-15T08:23:50;4.03;;;3.57;;
17181;SDS011;8706;48.254;16.422;2024-01-15T08:26:18;7.17;;;3.63;;
17181;SDS011;8706;48.254;16.422;2024-01-15T08:28:46;3.63;;;3.00;;
17181;SDS011;8706;48.254;16.422;2024-01-15T08:31:13;5.47;;;3.47;;
17181;SDS011;8706;48.254;16.422;2024-01-15T08:33:40;3.27;;;3.07;;
17181;SDS011;8706;48.254;16.422;2024-01-15T08:36:07;3.60;;;3.13;;
17181;SDS011;8706;48.254;16.422;2024-01-15T08:38:38;2.90;;;2.60;;
17181;SDS011;8706;48.254;16.422;2024-01-15T08:41:05;4.13;;;3.40;;
17181;SDS011;8706;48.254;16.422;2024-01-15T08:43:34;3.70;;;3.40;;
17181;SDS011;8706;48.254;16.422;2024-01-15T08:46:02;3.20;;;2.90;;
17181;SDS011;8706;48.254;16.422;2024-01-15T08:48:29;3.23;;;2.93;;
17181;SDS011;8706;48.254;16.422;2024-01-15T08:50:56;3.57;;;3.00;;
17181;SDS011;8706;48.254;16.422;2024-01-15T08:53:23;4.17;;;3.23;;
17181;SDS011;8706;48.254;16.422;2024-01-15T08:55:50;4.10;;;3.20;;
17181;SDS011;8706;48.254;16.422;2024-01-15T08:58:17;3.30;;;2.90;;
17181;SDS011;8706;48.254;16.422;2024-01-15T09:00:45;3.13;;;2.83;;
17181;SDS011;8706;48.254;16.422;2024-01-15T09:03:15;3.00;;;2.80;;
17181;SDS011;8706;48.254;16.422;2024-01-15T09:05:42;4.37;;;2.70;;
17181;SDS011;8706;48.254;16.422;2024-01-15T09:08:09;4.60;;;3.20;;
17181;SDS011;8706;48.254;16.422;2024-01-15T09:10:36;3.03;;;2.73;;
17181;SDS011;8706;48.254;16.422;2024-01-15T09:13:03;3.17;;;2.97;;
17181;SDS011;8706;48.254;16.422;2024-01-15T09:15:30;3.30;;;3.00;;
17181;SDS011;8706;48.254;16.422;2024-01-15T09:17:58;2.70;;;2.50;;
17181;SDS011;8706;48.254;16.422;2024-01-15T09:20:27;3.07;;;2.87;;
17181;SDS011;8706;48.254;16.422;2024-01-15T09:22:54;3.20;;;2.83;;
17181;SDS011;8706;48.254;16.422;2024-01-15T09:25:21;2.73;;;2.53;;
17181;SDS011;8706;48.254;16.422;2024-01-15T09:27:47;2.93;;;2.73;;
17181;SDS011;8706;48.254;16.422;2024-01-15T09:30:15;2.83;;;2.63;;
17181;SDS011;8706;48.254;16.422;2024-01-15T09:32:42;2.73;;;2.53;;
17181;SDS011;8706;48.254;16.422;2024-01-15T09:35:11;3.67;;;2.77;;
17181;SDS011;8706;48.254;16.422;2024-01-15T09:37:39;3.40;;;2.60;;
17181;SDS011;8706;48.254;16.422;2024-01-15T09:40:06;3.30;;;2.57;;
17181;SDS011;8706;48.254;16.422;2024-01-15T09:42:34;3.20;;;2.90;;
17181;SDS011;8706;48.254;16.422;2024-01-15T09:45:02;3.27;;;2.97;;
17181;SDS011;8706;48.254;16.422;2024-01-15T09:47:29;2.73;;;2.53;;
17181;SDS011;8706;48.254;16.422;2024-01-15T09:49:57;2.90;;;2.70;;
17181;SDS011;8706;48.254;16.422;2024-01-15T09:52:25;2.30;;;2.10;;
17181;SDS011;8706;48.254;16.422;2024-01-15T09:54:53;2.77;;;2.30;;
17181;SDS011;8706;48.254;16.422;2024-01-15T09:57:20;2.90;;;2.70;;
17181;SDS011;8706;48.254;16.422;2024-01-15T09:59:47;2.67;;;2.37;;
17181;SDS011;8706;48.254;16.422;2024-01-15T10:02:15;2.40;;;2.00;;
17181;SDS011;8706;48.254;16.422;2024-01-15T10:04:43;2.33;;;2.13;;
17181;SDS011;8706;48.254;16.422;2024-01-15T10:07:11;2.10;;;1.97;;
17181;SDS011;8706;48.254;16.422;2024-01-15T10:09:42;2.10;;;2.00;;
17181;SDS011;8706;48.254;16.422;2024-01-15T10:12:09;3.07;;;2.87;;
17181;SDS011;8706;48.254;16.422;2024-01-15T10:14:36;2.70;;;2.50;;
17181;SDS011;8706;48.254;16.422;2024-01-15T10:17:11;2.20;;;2.00;;
17181;SDS011;8706;48.254;16.422;2024-01-15T10:19:39;2.50;;;2.20;;
17181;SDS011;8706;48.254;16.422;2024-01-15T10:22:07;2.60;;;2.40;;
17181;SDS011;8706;48.254;16.422;2024-01-15T10:24:35;2.07;;;1.87;;
17181;SDS011;8706;48.254;16.422;2024-01-15T10:27:07;2.87;;;2.57;;
17181;SDS011;8706;48.254;16.422;2024-01-15T10:29:34;2.40;;;2.20;;
17181;SDS011;8706;48.254;16.422;2024-01-15T10:32:02;2.40;;;2.20;;
17181;SDS011;8706;48.254;16.422;2024-01-15T10:34:32;2.10;;;2.00;;
17181;SDS011;8706;48.254;16.422;2024-01-15T10:36:59;2.50;;;2.30;;
17181;SDS011;8706;48.254;16.422;2024-01-15T10:39:27;3.30;;;2.73;;
17181;SDS011;8706;48.254;16.422;2024-01-15T10:41:55;2.40;;;2.30;;
17181;SDS011;8706;48.254;16.422;2024-01-15T10:44:23;2.40;;;2.20;;
17181;SDS011;8706;48.254;16.422;2024-01-15T10:46:51;2.27;;;2.07;;
17181;SDS011;8706;48.254;16.422;2024-01-15T10:49:18;2.70;;;2.13;;
17181;SDS011;8706;48.254;16.422;2024-01-15T10:51:46;2.23;;;1.90;;
17181;SDS011;8706;48.254;16.422;2024-01-15T10:54:14;2.13;;;1.93;;
17181;SDS011;8706;48.254;16.422;2024-01-15T10:56:42;3.17;;;1.90;;
17181;SDS011;8706;48.254;16.422;2024-01-15T10:59:11;2.70;;;1.80;;
17181;SDS011;8706;48.254;16.422;2024-01-15T11:01:41;2.43;;;2.27;;
17181;SDS011;8706;48.254;16.422;2024-01-15T11:04:08;1.90;;;1.70;;
17181;SDS011;8706;48.254;16.422;2024-01-15T11:06:42;1.93;;;1.80;;
17181;SDS011;8706;48.254;16.422;2024-01-15T11:09:11;2.33;;;2.13;;
17181;SDS011;8706;48.254;16.422;2024-01-15T11:11:40;3.33;;;3.07;;
17181;SDS011;8706;48.254;16.422;2024-01-15T11:14:08;1.80;;;1.70;;
17181;SDS011;8706;48.254;16.422;2024-01-15T11:19:25;2.00;;;1.90;;
17181;SDS011;8706;48.254;16.422;2024-01-15T11:21:52;2.20;;;2.10;;
17181;SDS011;8706;48.254;16.422;2024-01-15T11:24:35;2.30;;;2.10;;
17181;SDS011;8706;48.254;16.422;2024-01-15T11:27:03;2.10;;;2.00;;
17181;SDS011;8706;48.254;16.422;2024-01-15T11:29:31;2.93;;;1.83;;
17181;SDS011;8706;48.254;16.422;2024-01-15T11:32:01;2.30;;;2.10;;
17181;SDS011;8706;48.254;16.422;2024-01-15T11:37:17;2.00;;;1.90;;
17181;SDS011;8706;48.254;16.422;2024-01-15T11:39:44;2.57;;;1.60;;
17181;SDS011;8706;48.254;16.422;2024-01-15T11:42:12;4.43;;;2.20;;
17181;SDS011;8706;48.254;16.422;2024-01-15T11:44:40;2.10;;;1.90;;
17181;SDS011;8706;48.254;16.422;2024-01-15T11:47:09;2.00;;;1.90;;
17181;SDS011;8706;48.254;16.422;2024-01-15T11:49:56;2.53;;;2.33;;
17181;SDS011;8706;48.254;16.422;2024-01-15T11:52:26;1.90;;;1.70;;
17181;SDS011;8706;48.254;16.422;2024-01-15T11:55:00;1.93;;;1.80;;
17181;SDS011;8706;48.254;16.422;2024-01-15T11:57:40;2.20;;;2.10;;
17181;SDS011;8706;48.254;16.422;2024-01-15T12:00:08;2.40;;;2.20;;
17181;SDS011;8706;48.254;16.422;2024-01-15T12:02:38;2.60;;;2.40;;
17181;SDS011;8706;48.254;16.422;2024-01-15T12:05:06;2.07;;;1.97;;
17181;SDS011;8706;48.254;16.422;2024-01-15T12:07:33;4.73;;;2.70;;
17181;SDS011;8706;48.254;16.422;2024-01-15T12:10:00;2.60;;;1.80;;
17181;SDS011;8706;48.254;16.422;2024-01-15T12:12:30;1.57;;;1.47;;
17181;SDS011;8706;48.254;16.422;2024-01-15T12:15:04;2.00;;;1.90;;
17181;SDS011;8706;48.254;16.422;2024-01-15T12:17:31;2.33;;;1.70;;
17181;SDS011;8706;48.254;16.422;2024-01-15T12:19:59;1.80;;;1.70;;
17181;SDS011;8706;48.254;16.422;2024-01-15T12:22:26;1.70;;;1.60;;
17181;SDS011;8706;48.254;16.422;2024-01-15T12:24:53;1.50;;;1.40;;
17181;SDS011;8706;48.254;16.422;2024-01-15T12:27:20;1.70;;;1.60;;
17181;SDS011;8706;48.254;16.422;2024-01-15T12:29:47;1.70;;;1.60;;
17181;SDS011;8706;48.254;16.422;2024-01-15T12:32:14;2.10;;;1.90;;
17181;SDS011;8706;48.254;16.422;2024-01-15T12:34:41;1.67;;;1.57;;
17181;SDS011;8706;48.254;16.422;2024-01-15T12:37:10;1.87;;;1.77;;
17181;SDS011;8706;48.254;16.422;2024-01-15T12:39:37;1.70;;;1.60;;
17181;SDS011;8706;48.254;16.422;2024-01-15T12:42:04;3.13;;;2.90;;
17181;SDS011;8706;48.254;16.422;2024-01-15T12:44:31;1.87;;;1.73;;
17181;SDS011;8706;48.254;16.422;2024-01-15T12:46:58;1.90;;;1.60;;
17181;SDS011;8706;48.254;16.422;2024-01-15T12:49:25;1.70;;;1.60;;
17181;SDS011;8706;48.254;16.422;2024-01-15T12:51:52;1.70;;;1.60;;
17181;SDS011;8706;48.254;16.422;2024-01-15T12:54:21;1.57;;;1.47;;
17181;SDS011;8706;48.254;16.422;2024-01-15T12:56:48;2.73;;;2.53;;
17181;SDS011;8706;48.254;16.422;2024-01-15T12:59:15;1.80;;;1.70;;
17181;SDS011;8706;48.254;16.422;2024-01-15T13:01:43;1.70;;;1.60;;
17181;SDS011;8706;48.254;16.422;2024-01-15T13:04:10;1.87;;;1.70;;
17181;SDS011;8706;48.254;16.422;2024-01-15T13:06:37;1.90;;;1.80;;
17181;SDS011;8706;48.254;16.422;2024-01-15T13:09:04;2.30;;;2.20;;
17181;SDS011;8706;48.254;16.422;2024-01-15T13:11:31;2.00;;;1.90;;
17181;SDS011;8706;48.254;16.422;2024-01-15T13:13:58;2.30;;;2.20;;
17181;SDS011;8706;48.254;16.422;2024-01-15T13:16:25;2.03;;;1.93;;
17181;SDS011;8706;48.254;16.422;2024-01-15T13:18:54;1.83;;;1.73;;
17181;SDS011;8706;48.254;16.422;2024-01-15T13:21:21;1.70;;;1.60;;
17181;SDS011;8706;48.254;16.422;2024-01-15T13:23:48;1.50;;;1.40;;
17181;SDS011;8706;48.254;16.422;2024-01-15T13:26:15;2.13;;;1.90;;
17181;SDS011;8706;48.254;16.422;2024-01-15T13:28:44;1.40;;;1.40;;
17181;SDS011;8706;48.254;16.422;2024-01-15T13:31:11;1.50;;;1.40;;
17181;SDS011;8706;48.254;16.422;2024-01-15T13:33:38;2.23;;;2.13;;
17181;SDS011;8706;48.254;16.422;2024-01-15T13:36:05;1.77;;;1.67;;
17181;SDS011;8706;48.254;16.422;2024-01-15T13:38:35;1.40;;;1.27;;
17181;SDS011;8706;48.254;16.422;2024-01-15T13:41:03;1.47;;;1.37;;
17181;SDS011;8706;48.254;16.422;2024-01-15T13:43:31;1.50;;;1.40;;
17181;SDS011;8706;48.254;16.422;2024-01-15T13:45:59;1.60;;;1.50;;
17181;SDS011;8706;48.254;16.422;2024-01-15T13:48:29;1.73;;;1.63;;
17181;SDS011;8706;48.254;16.422;2024-01-15T13:50:56;1.40;;;1.30;;
17181;SDS011;8706;48.254;16.422;2024-01-15T13:53:24;1.80;;;1.70;;
17181;SDS011;8706;48.254;16.422;2024-01-15T13:55:51;1.50;;;1.40;;
17181;SDS011;8706;48.254;16.422;2024-01-15T13:58:18;1.70;;;1.60;;
17181;SDS011;8706;48.254;16.422;2024-01-15T14:00:46;1.50;;;1.40;;
17181;SDS011;8706;48.254;16.422;2024-01-15T14:03:14;1.70;;;1.60;;
17181;SDS011;8706;48.254;16.422;2024-01-15T14:05:41;1.80;;;1.70;;
17181;SDS011;8706;48.254;16.422;2024-01-15T14:08:09;1.93;;;1.83;;
17181;SDS011;8706;48.254;16.422;2024-01-15T14:10:35;1.80;;;1.70;;
17181;SDS011;8706;48.254;16.422;2024-01-15T14:13:03;2.00;;;1.83;;
17181;SDS011;8706;48.254;16.422;2024-01-15T14:15:30;1.63;;;1.53;;
17181;SDS011;8706;48.254;16.422;2024-01-15T14:17:57;1.40;;;1.27;;
17181;SDS011;8706;48.254;16.422;2024-01-15T14:20:26;1.50;;;1.40;;
17181;SDS011;8706;48.254;16.422;2024-01-15T14:22:53;1.50;;;1.40;;
17181;SDS011;8706;48.254;16.422;2024-01-15T14:25:20;2.17;;;2.07;;
17181;SDS011;8706;48.254;16.422;2024-01-15T14:27:47;1.80;;;1.70;;
17181;SDS011;8706;48.254;16.422;2024-01-15T14:30:15;1.50;;;1.40;;
17181;SDS011;8706;48.254;16.422;2024-01-15T14:32:42;1.50;;;1.40;;
17181;SDS011;8706;48.254;16.422;2024-01-15T14:35:09;2.00;;;1.90;;
17181;SDS011;8706;48.254;16.422;2024-01-15T14:37:38;1.53;;;1.43;;
17181;SDS011;8706;48.254;16.422;2024-01-15T14:40:05;1.47;;;1.37;;
17181;SDS011;8706;48.254;16.422;2024-01-15T14:42:33;1.97;;;1.87;;
17181;SDS011;8706;48.254;16.422;2024-01-15T14:45:01;1.60;;;1.50;;
17181;SDS011;8706;48.254;16.422;2024-01-15T14:47:29;1.13;;;1.13;;
17181;SDS011;8706;48.254;16.422;2024-01-15T14:49:57;1.57;;;1.47;;
17181;SDS011;8706;48.254;16.422;2024-01-15T14:52:24;1.37;;;1.27;;
17181;SDS011;8706;48.254;16.422;2024-01-15T14:54:52;2.07;;;1.97;;
17181;SDS011;8706;48.254;16.422;2024-01-15T14:57:22;1.83;;;1.50;;
17181;SDS011;8706;48.254;16.422;2024-01-15T14:59:49;2.03;;;1.93;;